Observation data for Northwest San Angelo on 01/12/2018      Previous  Date  Next       Current Mesonet Observations  Soil Data  Daily Summary Page  Observations in Plain Language
KASU 120600Z 28004KT M00/M12 A303 RMK A01 T10031116  RH  043%=      5-min Rain = 0
KASU 120605Z 25003KT M01/M12 A303 RMK A01 T10071117  RH  044%=      5-min Rain = 0
KASU 120610Z 26003KT M00/M11 A3031 RMK A01 T10021114  RH  043%=      5-min Rain = 0
KASU 120615Z 27003KT M00/M12 A3031 RMK A01 T10041116  RH  043%=      5-min Rain = 0
KASU 120620Z 28004KT M01/M11 A3031 RMK A01 T10051114  RH  044%=      5-min Rain = 0
KASU 120625Z 29004KT M00/M11 A3031 RMK A01 T10021113  RH  043%=      5-min Rain = 0
KASU 120630Z 29003KT 00/M11 A303 RMK A01 T00041111  RH  042%=      5-min Rain = 0
KASU 120635Z 30004KT 00/M11 A303 RMK A01 T00041112  RH  042%=      5-min Rain = 0
KASU 120640Z 31005KT M00/M11 A303 RMK A01 T10011113  RH  043%=      5-min Rain = 0
KASU 120645Z 31005KT M01/M11 A303 RMK A01 T10071112  RH  046%=      5-min Rain = 0
KASU 120650Z 32004KT M01/M11 A303 RMK A01 T10101112  RH  047%=      5-min Rain = 0
KASU 120655Z 33004KT M01/M11 A303 RMK A01 T10141111  RH  048%=      5-min Rain = 0
KASU 120700Z 34004KT M01/M11 A303 RMK A01 T10141111  RH  048%=      5-min Rain = 0
KASU 120705Z 34004KT M01/M11 A303 RMK A01 T10121111  RH  047%=      5-min Rain = 0
KASU 120710Z 33004KT M02/M11 A303 RMK A01 T10241113  RH  051%=      5-min Rain = 0
KASU 120715Z 33005KT M02/M11 A303 RMK A01 T10211109  RH  051%=      5-min Rain = 0
KASU 120720Z 32005KT M03/M11 A303 RMK A01 T10251113  RH  051%=      5-min Rain = 0
KASU 120725Z 31005KT M03/M11 A303 RMK A01 T10271111  RH  053%=      5-min Rain = 0
KASU 120730Z 33006KT M02/M11 A303 RMK A01 T10201106  RH  052%=      5-min Rain = 0
KASU 120735Z 35006KT M01/M10 A3029 RMK A01 T10071103  RH  049%=      5-min Rain = 0
KASU 120740Z 36004KT M01/M11 A303 RMK A01 T10071107  RH  047%=      5-min Rain = 0
KASU 120745Z 00003KT M02/M11 A303 RMK A01 T10151109  RH  049%=      5-min Rain = 0
KASU 120750Z 36003KT M02/M11 A303 RMK A01 T10191111  RH  050%=      5-min Rain = 0
KASU 120755Z 01004KT M02/M11 A303 RMK A01 T10241112  RH  052%=      5-min Rain = 0
KASU 120800Z 01004KT M03/M11 A303 RMK A01 T10261114  RH  052%=      5-min Rain = 0
KASU 120805Z 36003KT M04/M11 A303 RMK A01 T10361114  RH  056%=      5-min Rain = 0
KASU 120810Z 33004KT M04/M11 A303 RMK A01 T10371114  RH  056%=      5-min Rain = 0
KASU 120815Z 31003KT M04/M11 A303 RMK A01 T10371112  RH  057%=      5-min Rain = 0
KASU 120820Z 32004KT M03/M11 A3031 RMK A01 T10331110  RH  056%=      5-min Rain = 0
KASU 120825Z 33004KT M03/M11 A3031 RMK A01 T10321110  RH  055%=      5-min Rain = 0
KASU 120830Z 33004KT M04/M11 A303 RMK A01 T10381114  RH  056%=      5-min Rain = 0
KASU 120835Z 32005KT M04/M12 A303 RMK A01 T10431116  RH  058%=      5-min Rain = 0
KASU 120840Z 32006KT M05/M12 A303 RMK A01 T10461115  RH  059%=      5-min Rain = 0
KASU 120845Z 32005KT M04/M11 A303 RMK A01 T10421109  RH  060%=      5-min Rain = 0
KASU 120850Z 32005KT M04/M11 A3031 RMK A01 T10381108  RH  059%=      5-min Rain = 0
KASU 120855Z 31004KT M04/M11 A303 RMK A01 T10371108  RH  059%=      5-min Rain = 0
KASU 120900Z 23002KT M04/M11 A303 RMK A01 T10401114  RH  057%=      5-min Rain = 0
KASU 120905Z 22002KT M05/M12 A303 RMK A01 T10471117  RH  059%=      5-min Rain = 0
KASU 120910Z 24003KT M04/M11 A303 RMK A01 T10431113  RH  059%=      5-min Rain = 0
KASU 120915Z 24003KT M04/M11 A303 RMK A01 T10401112  RH  058%=      5-min Rain = 0
KASU 120920Z 27003KT M04/M11 A303 RMK A01 T10401111  RH  058%=      5-min Rain = 0
KASU 120925Z 28003KT M04/M11 A303 RMK A01 T10381108  RH  059%=      5-min Rain = 0
KASU 120930Z 28003KT M03/M11 A303 RMK A01 T10331106  RH  058%=      5-min Rain = 0
KASU 120935Z 28003KT M04/M11 A303 RMK A01 T10351109  RH  057%=      5-min Rain = 0
KASU 120940Z 30002KT M04/M11 A303 RMK A01 T10361107  RH  059%=      5-min Rain = 0
KASU 120945Z 33002KT M04/M11 A303 RMK A01 T10351106  RH  059%=      5-min Rain = 0
KASU 120950Z 34003KT M04/M11 A303 RMK A01 T10381106  RH  060%=      5-min Rain = 0
KASU 120955Z 32003KT M04/M11 A303 RMK A01 T10371106  RH  059%=      5-min Rain = 0
KASU 121000Z 30003KT M04/M11 A303 RMK A01 T10411111  RH  059%=      5-min Rain = 0
KASU 121005Z 29003KT M05/M11 A303 RMK A01 T10481113  RH  061%=      5-min Rain = 0
KASU 121010Z 29004KT M05/M11 A303 RMK A01 T10461109  RH  062%=      5-min Rain = 0
KASU 121015Z 28004KT M05/M11 A3031 RMK A01 T10451111  RH  061%=      5-min Rain = 0
KASU 121020Z 29004KT M05/M11 A3031 RMK A01 T10461109  RH  062%=      5-min Rain = 0
KASU 121025Z 30005KT M05/M11 A303 RMK A01 T10471111  RH  062%=      5-min Rain = 0
KASU 121030Z 30004KT M05/M11 A3031 RMK A01 T10491110  RH  063%=      5-min Rain = 0
KASU 121035Z 31004KT M05/M11 A3031 RMK A01 T10471106  RH  064%=      5-min Rain = 0
KASU 121040Z 31004KT M05/M11 A3031 RMK A01 T10481109  RH  063%=      5-min Rain = 0
KASU 121045Z 30003KT M05/M11 A3031 RMK A01 T10511109  RH  065%=      5-min Rain = 0
KASU 121050Z 30003KT M05/M11 A3031 RMK A01 T10511109  RH  065%=      5-min Rain = 0
KASU 121055Z 32003KT M05/M11 A3031 RMK A01 T10511108  RH  065%=      5-min Rain = 0
KASU 121100Z 33003KT M05/M11 A3031 RMK A01 T10481106  RH  064%=      5-min Rain = 0
KASU 121105Z 34003KT M05/M11 A3031 RMK A01 T10481107  RH  064%=      5-min Rain = 0
KASU 121110Z 32003KT M05/M11 A3031 RMK A01 T10481107  RH  064%=      5-min Rain = 0
KASU 121115Z 29003KT M05/M11 A3031 RMK A01 T10501109  RH  064%=      5-min Rain = 0
KASU 121120Z 28003KT M05/M11 A3031 RMK A01 T10511109  RH  065%=      5-min Rain = 0
KASU 121125Z 30003KT M05/M11 A3031 RMK A01 T10501107  RH  065%=      5-min Rain = 0
KASU 121130Z 28002KT M05/M11 A303 RMK A01 T10491109  RH  064%=      5-min Rain = 0
KASU 121135Z 28002KT M05/M11 A303 RMK A01 T10521111  RH  064%=      5-min Rain = 0
KASU 121140Z 30003KT M05/M11 A303 RMK A01 T10491107  RH  065%=      5-min Rain = 0
KASU 121145Z 29002KT M05/M11 A303 RMK A01 T10491109  RH  064%=      5-min Rain = 0
KASU 121150Z 29002KT M05/M11 A303 RMK A01 T10531112  RH  064%=      5-min Rain = 0
KASU 121155Z 30004KT M06/M11 A303 RMK A01 T10551111  RH  065%=      5-min Rain = 0
KASU 121200Z 30003KT M05/M11 A303 RMK A01 T10541109  RH  066%=      5-min Rain = 0
KASU 121205Z 32004KT M06/M11 A303 RMK A01 T10561111  RH  066%=      5-min Rain = 0
KASU 121210Z 32005KT M06/M12 A3031 RMK A01 T10621115  RH  067%=      5-min Rain = 0
KASU 121215Z 33005KT M06/M11 A3031 RMK A01 T10631113  RH  069%=      5-min Rain = 0
KASU 121220Z 33005KT M06/M11 A3031 RMK A01 T10611111  RH  069%=      5-min Rain = 0
KASU 121225Z 33005KT M06/M11 A3031 RMK A01 T10611110  RH  069%=      5-min Rain = 0
KASU 121230Z 33005KT M06/M11 A3031 RMK A01 T10601108  RH  069%=      5-min Rain = 0
KASU 121235Z 33004KT M06/M11 A3031 RMK A01 T10601109  RH  069%=      5-min Rain = 0
KASU 121240Z 33005KT M06/M11 A3031 RMK A01 T10621112  RH  069%=      5-min Rain = 0
KASU 121245Z 34004KT M06/M11 A3031 RMK A01 T10571106  RH  069%=      5-min Rain = 0
KASU 121250Z 34004KT M06/M11 A3031 RMK A01 T10611112  RH  068%=      5-min Rain = 0
KASU 121255Z 33005KT M06/M11 A3031 RMK A01 T10571107  RH  069%=      5-min Rain = 0
KASU 121300Z 33004KT M06/M11 A3031 RMK A01 T10641113  RH  069%=      5-min Rain = 0
KASU 121305Z 34004KT M05/M10 A3031 RMK A01 T10541103  RH  069%=      5-min Rain = 0
KASU 121310Z 32005KT M06/M11 A3031 RMK A01 T10591113  RH  067%=      5-min Rain = 0
KASU 121315Z 33004KT M06/M11 A3031 RMK A01 T10621114  RH  068%=      5-min Rain = 0
KASU 121320Z 31004KT M06/M11 A3032 RMK A01 T10601112  RH  068%=      5-min Rain = 0
KASU 121325Z 31005KT M06/M12 A3032 RMK A01 T10631115  RH  067%=      5-min Rain = 0
KASU 121330Z 32004KT M06/M11 A3032 RMK A01 T10611110  RH  069%=      5-min Rain = 0
KASU 121335Z 32004KT M06/M11 A3032 RMK A01 T10601112  RH  068%=      5-min Rain = 0
KASU 121340Z 32005KT M06/M11 A3033 RMK A01 T10611111  RH  068%=      5-min Rain = 0
KASU 121345Z 30004KT M06/M11 A3033 RMK A01 T10611112  RH  068%=      5-min Rain = 0
KASU 121350Z 31005KT M06/M11 A3033 RMK A01 T10601110  RH  068%=      5-min Rain = 0
KASU 121355Z 32004KT M06/M11 A3033 RMK A01 T10591110  RH  068%=      5-min Rain = 0
KASU 121400Z 31004KT M06/M11 A3033 RMK A01 T10601112  RH  068%=      5-min Rain = 0
KASU 121405Z 33006KT M06/M11 A3033 RMK A01 T10601111  RH  068%=      5-min Rain = 0
KASU 121410Z 32006KT M06/M11 A3033 RMK A01 T10591109  RH  069%=      5-min Rain = 0
KASU 121415Z 32005KT M06/M11 A3033 RMK A01 T10551107  RH  068%=      5-min Rain = 0
KASU 121420Z 32005KT M05/M11 A3033 RMK A01 T10521106  RH  067%=      5-min Rain = 0
KASU 121425Z 32005KT M05/M11 A3033 RMK A01 T10491105  RH  066%=      5-min Rain = 0
KASU 121430Z 31003KT M05/M10 A3033 RMK A01 T10461103  RH  065%=      5-min Rain = 0
KASU 121435Z 33003KT M04/M10 A3033 RMK A01 T10411099  RH  065%=      5-min Rain = 0
KASU 121440Z 33003KT M04/M10 A3033 RMK A01 T10351095  RH  064%=      5-min Rain = 0
KASU 121445Z 33004KT M03/M09 A3033 RMK A01 T10301093  RH  063%=      5-min Rain = 0
KASU 121450Z 32004KT M03/M09 A3033 RMK A01 T10261093  RH  060%=      5-min Rain = 0
KASU 121455Z 32004KT M02/M10 A3034 RMK A01 T10231095  RH  059%=      5-min Rain = 0
KASU 121500Z 32003KT M02/M09 A3034 RMK A01 T10181092  RH  058%=      5-min Rain = 0
KASU 121505Z 31003KT M01/M09 A3034 RMK A01 T10101089  RH  056%=      5-min Rain = 0
KASU 121510Z 32004KT M01/M09 A3034 RMK A01 T10071090  RH  054%=      5-min Rain = 0
KASU 121515Z 32004KT M00/M09 A3034 RMK A01 T10031088  RH  053%=      5-min Rain = 0
KASU 121520Z 32004KT 00/09 A3034 RMK A01 T00-00-88  RH  052%=      5-min Rain = 0
KASU 121525Z 32004KT 00/M09 A3034 RMK A01 T00041089  RH  050%=      5-min Rain = 0
KASU 121530Z 32004KT 01/M09 A3034 RMK A01 T00101088  RH  048%=      5-min Rain = 0
KASU 121535Z 33004KT 02/M09 A3034 RMK A01 T00151088  RH  047%=      5-min Rain = 0
KASU 121540Z 31003KT 02/M09 A3035 RMK A01 T00191091  RH  045%=      5-min Rain = 0
KASU 121545Z 32002KT 02/M09 A3035 RMK A01 T00231089  RH  044%=      5-min Rain = 0
KASU 121550Z 31001KT 03/M09 A3035 RMK A01 T00281092  RH  042%=      5-min Rain = 0
KASU 121555Z 32002KT 03/M09 A3035 RMK A01 T00311091  RH  041%=      5-min Rain = 0
KASU 121600Z 03001KT 03/M10 A3035 RMK A01 T00331096  RH  039%=      5-min Rain = 0
KASU 121605Z 05002KT 04/M10 A3035 RMK A01 T00361104  RH  036%=      5-min Rain = 0
KASU 121610Z 30001KT 04/M10 A3035 RMK A01 T00391103  RH  035%=      5-min Rain = 0
KASU 121615Z 09001KT 04/M10 A3035 RMK A01 T00421100  RH  035%=      5-min Rain = 0
KASU 121620Z 04001KT 05/M10 A3035 RMK A01 T00471100  RH  034%=      5-min Rain = 0
KASU 121625Z 17003KT 05/M10 A3035 RMK A01 T00511099  RH  033%=      5-min Rain = 0
KASU 121630Z 15003KT 05/M10 A3034 RMK A01 T00491102  RH  033%=      5-min Rain = 0
KASU 121635Z 15004KT 05/M10 A3034 RMK A01 T00501103  RH  032%=      5-min Rain = 0
KASU 121640Z 17004KT 05/M10 A3034 RMK A01 T00501103  RH  033%=      5-min Rain = 0
KASU 121645Z 14004KT 05/M11 A3034 RMK A01 T00511108  RH  031%=      5-min Rain = 0
KASU 121650Z 15005KT 05/M11 A3033 RMK A01 T00541107  RH  031%=      5-min Rain = 0
KASU 121655Z 12004KT 06/M11 A3033 RMK A01 T00551107  RH  030%=      5-min Rain = 0
KASU 121700Z 12004KT 06/M11 A3033 RMK A01 T00621105  RH  030%=      5-min Rain = 0
KASU 121705Z 15004KT 06/M10 A3033 RMK A01 T00631100  RH  030%=      5-min Rain = 0
KASU 121710Z 15005KT 06/M10 A3033 RMK A01 T00641099  RH  030%=      5-min Rain = 0
KASU 121715Z 12006KT 06/M10 A3033 RMK A01 T00631100  RH  030%=      5-min Rain = 0
KASU 121720Z 14004KT 06/M10 A3032 RMK A01 T00621103  RH  030%=      5-min Rain = 0
KASU 121725Z 16006KT 06/M11 A3032 RMK A01 T00631105  RH  029%=      5-min Rain = 0
KASU 121730Z 14006KT 07/M11 A3032 RMK A01 T00651106  RH  029%=      5-min Rain = 0
KASU 121735Z 11006KT 07/M11 A3031 RMK A01 T00671106  RH  028%=      5-min Rain = 0
KASU 121740Z 12005KT 07/M11 A3031 RMK A01 T00681105  RH  028%=      5-min Rain = 0
KASU 121745Z 12006KT 07/M11 A303 RMK A01 T00721105  RH  027%=      5-min Rain = 0
KASU 121750Z 14007KT 07/M10 A303 RMK A01 T00711104  RH  028%=      5-min Rain = 0
KASU 121755Z 12006G11KT 07/M10 A3029 RMK A01 T00741101  RH  028%=      5-min Rain = 0
KASU 121800Z 12006KT 08/M10 A3029 RMK A01 T00761104  RH  027%=      5-min Rain = 0
KASU 121805Z 13007KT 08/M10 A3028 RMK A01 T00761104  RH  027%=      5-min Rain = 0
KASU 121810Z 13005KT 08/M10 A3028 RMK A01 T00791104  RH  027%=      5-min Rain = 0
KASU 121815Z 13006G12KT 08/M11 A3028 RMK A01 T00841106  RH  025%=      5-min Rain = 0
KASU 121820Z 11006G11KT 08/M11 A3027 RMK A01 T00811107  RH  025%=      5-min Rain = 0
KASU 121825Z 12008G13KT 08/M11 A3027 RMK A01 T00841111  RH  024%=      5-min Rain = 0
KASU 121830Z 13006G12KT 09/M11 A3026 RMK A01 T00851111  RH  024%=      5-min Rain = 0
KASU 121835Z 12009KT 09/M12 A3025 RMK A01 T00871115  RH  023%=      5-min Rain = 0
KASU 121840Z 13006KT 09/M11 A3025 RMK A01 T00891110  RH  024%=      5-min Rain = 0
KASU 121845Z 12009KT 09/M12 A3025 RMK A01 T00911121  RH  021%=      5-min Rain = 0
KASU 121850Z 12009KT 09/M13 A3025 RMK A01 T00911126  RH  020%=      5-min Rain = 0
KASU 121855Z 11009KT 09/M13 A3025 RMK A01 T00901126  RH  021%=      5-min Rain = 0
KASU 121900Z 11008KT 09/M12 A3025 RMK A01 T00921121  RH  021%=      5-min Rain = 0
KASU 121905Z 11010KT 09/M12 A3024 RMK A01 T00931124  RH  021%=      5-min Rain = 0
KASU 121910Z 12008KT 10/M12 A3023 RMK A01 T00951124  RH  020%=      5-min Rain = 0
KASU 121915Z 12008KT 10/M12 A3023 RMK A01 T01011116  RH  021%=      5-min Rain = 0
KASU 121920Z 14008KT 10/M12 A3023 RMK A01 T01011121  RH  020%=      5-min Rain = 0
KASU 121925Z 14008KT 10/M12 A3022 RMK A01 T01021121  RH  020%=      5-min Rain = 0
KASU 121930Z 10010KT 10/M12 A3022 RMK A01 T01011121  RH  020%=      5-min Rain = 0
KASU 121935Z 09008KT 10/M12 A3021 RMK A01 T01001121  RH  020%=      5-min Rain = 0
KASU 121940Z 10008KT 10/M12 A3021 RMK A01 T01041119  RH  020%=      5-min Rain = 0
KASU 121945Z 12007KT 11/M12 A302 RMK A01 T01101118  RH  019%=      5-min Rain = 0
KASU 121950Z 11008KT 11/M12 A302 RMK A01 T01051121  RH  019%=      5-min Rain = 0
KASU 121955Z 12006KT 11/M12 A302 RMK A01 T01111117  RH  019%=      5-min Rain = 0
KASU 122000Z 11007KT 11/M12 A302 RMK A01 T01051120  RH  019%=      5-min Rain = 0
KASU 122005Z 10008KT 11/M12 A3019 RMK A01 T01081118  RH  019%=      5-min Rain = 0
KASU 122010Z 12007G15KT 11/M12 A3019 RMK A01 T01101117  RH  019%=      5-min Rain = 0
KASU 122015Z 13008KT 11/M12 A3019 RMK A01 T01131119  RH  019%=      5-min Rain = 0
KASU 122020Z 12006G11KT 11/M12 A3019 RMK A01 T01131119  RH  019%=      5-min Rain = 0
KASU 122025Z 11008KT 11/M12 A3019 RMK A01 T01131119  RH  019%=      5-min Rain = 0
KASU 122030Z 11007KT 11/M12 A3018 RMK A01 T01121120  RH  019%=      5-min Rain = 0
KASU 122035Z 11004G10KT 11/M12 A3018 RMK A01 T01111121  RH  019%=      5-min Rain = 0
KASU 122040Z 12007KT 12/M12 A3018 RMK A01 T01191118  RH  018%=      5-min Rain = 0
KASU 122045Z 08008KT 12/M12 A3018 RMK A01 T01181117  RH  018%=      5-min Rain = 0
KASU 122050Z 09007G12KT 12/M12 A3018 RMK A01 T01191117  RH  018%=      5-min Rain = 0
KASU 122055Z 10008KT 12/M12 A3017 RMK A01 T01201117  RH  018%=      5-min Rain = 0
KASU 122100Z 11006KT 12/M12 A3017 RMK A01 T01201118  RH  018%=      5-min Rain = 0
KASU 122105Z 11007KT 12/M12 A3017 RMK A01 T01171117  RH  018%=      5-min Rain = 0
KASU 122110Z 12006KT 12/M12 A3017 RMK A01 T01211119  RH  018%=      5-min Rain = 0
KASU 122115Z 09006KT 12/M12 A3017 RMK A01 T01221117  RH  018%=      5-min Rain = 0
KASU 122120Z 09007G12KT 12/M12 A3017 RMK A01 T01241116  RH  018%=      5-min Rain = 0
KASU 122125Z 08008KT 13/M12 A3017 RMK A01 T01261117  RH  017%=      5-min Rain = 0
KASU 122130Z 08008KT 12/M12 A3017 RMK A01 T01241119  RH  017%=      5-min Rain = 0
KASU 122135Z 09007KT 13/M12 A3017 RMK A01 T01251119  RH  017%=      5-min Rain = 0
KASU 122140Z 10007G12KT 13/M12 A3016 RMK A01 T01271121  RH  017%=      5-min Rain = 0
KASU 122145Z 08009KT 13/M12 A3016 RMK A01 T01271119  RH  017%=      5-min Rain = 0
KASU 122150Z 06007KT 13/M12 A3016 RMK A01 T01261120  RH  017%=      5-min Rain = 0
KASU 122155Z 09008KT 13/M12 A3016 RMK A01 T01291120  RH  017%=      5-min Rain = 0
KASU 122200Z 08008KT 13/M12 A3016 RMK A01 T01271123  RH  016%=      5-min Rain = 0
KASU 122205Z 08008KT 13/M12 A3017 RMK A01 T01261123  RH  017%=      5-min Rain = 0
KASU 122210Z 08006KT 13/M12 A3017 RMK A01 T01281123  RH  016%=      5-min Rain = 0
KASU 122215Z 07008KT 13/M12 A3017 RMK A01 T01301122  RH  016%=      5-min Rain = 0
KASU 122220Z 08010KT 13/M12 A3017 RMK A01 T01301122  RH  016%=      5-min Rain = 0
KASU 122225Z 06008KT 13/M12 A3017 RMK A01 T01271124  RH  016%=      5-min Rain = 0
KASU 122230Z 07008KT 13/M12 A3017 RMK A01 T01291124  RH  016%=      5-min Rain = 0
KASU 122235Z 07009KT 13/M12 A3017 RMK A01 T01291123  RH  016%=      5-min Rain = 0
KASU 122240Z 07010KT 13/M12 A3017 RMK A01 T01281123  RH  016%=      5-min Rain = 0
KASU 122245Z 08008KT 13/M12 A3017 RMK A01 T01271124  RH  016%=      5-min Rain = 0
KASU 122250Z 07010KT 13/M12 A3017 RMK A01 T01271124  RH  016%=      5-min Rain = 0
KASU 122255Z 07008KT 13/M12 A3017 RMK A01 T01271122  RH  017%=      5-min Rain = 0
KASU 122300Z 07010KT 13/M12 A3017 RMK A01 T01251123  RH  017%=      5-min Rain = 0
KASU 122305Z 07009KT 12/M12 A3017 RMK A01 T01241123  RH  017%=      5-min Rain = 0
KASU 122310Z 06009KT 12/M12 A3017 RMK A01 T01231124  RH  017%=      5-min Rain = 0
KASU 122315Z 07009KT 12/M13 A3017 RMK A01 T01211125  RH  017%=      5-min Rain = 0
KASU 122320Z 07009KT 12/M12 A3017 RMK A01 T01201124  RH  017%=      5-min Rain = 0
KASU 122325Z 07010KT 12/M12 A3017 RMK A01 T01181124  RH  017%=      5-min Rain = 0
KASU 122330Z 07009KT 12/M13 A3017 RMK A01 T01161125  RH  017%=      5-min Rain = 0
KASU 122335Z 07009KT 11/M12 A3017 RMK A01 T01141124  RH  018%=      5-min Rain = 0
KASU 122340Z 07010KT 11/M12 A3017 RMK A01 T01121123  RH  018%=      5-min Rain = 0
KASU 122345Z 07009KT 11/M12 A3017 RMK A01 T01091124  RH  018%=      5-min Rain = 0
KASU 122350Z 07009KT 11/M13 A3017 RMK A01 T01061125  RH  019%=      5-min Rain = 0
KASU 122355Z 07010KT 10/M13 A3018 RMK A01 T01031127  RH  019%=      5-min Rain = 0
KASU 130000Z 07010KT 10/M13 A3018 RMK A01 T00981130  RH  019%=      5-min Rain = 0
KASU 130005Z 07009KT 10/M13 A3018 RMK A01 T00951131  RH  019%=      5-min Rain = 0
KASU 130010Z 08010KT 09/M13 A3018 RMK A01 T00921132  RH  019%=      5-min Rain = 0
KASU 130015Z 08010KT 09/M13 A3018 RMK A01 T00891134  RH  019%=      5-min Rain = 0
KASU 130020Z 08009KT 09/M13 A3018 RMK A01 T00861134  RH  020%=      5-min Rain = 0
KASU 130025Z 07010KT 09/M13 A3018 RMK A01 T00851134  RH  020%=      5-min Rain = 0
KASU 130030Z 07010KT 09/M14 A3018 RMK A01 T00861135  RH  020%=      5-min Rain = 0
KASU 130035Z 07009KT 08/M13 A3019 RMK A01 T00831134  RH  020%=      5-min Rain = 0
KASU 130040Z 07009KT 08/M13 A3019 RMK A01 T00801131  RH  021%=      5-min Rain = 0
KASU 130045Z 07011KT 08/M13 A302 RMK A01 T00801131  RH  021%=      5-min Rain = 0
KASU 130050Z 07011KT 08/M13 A302 RMK A01 T00781131  RH  022%=      5-min Rain = 0
KASU 130055Z 07011KT 08/M13 A302 RMK A01 T00781131  RH  021%=      5-min Rain = 0
KASU 130100Z 07009KT 08/M13 A302 RMK A01 T00751131  RH  022%=      5-min Rain = 0
KASU 130105Z 07010KT 07/M13 A302 RMK A01 T00721130  RH  022%=      5-min Rain = 0
KASU 130110Z 07012KT 07/M13 A302 RMK A01 T00731131  RH  022%=      5-min Rain = 0
KASU 130115Z 07011KT 07/M13 A3021 RMK A01 T00731131  RH  022%=      5-min Rain = 0
KASU 130120Z 07011KT 07/M13 A3021 RMK A01 T00721131  RH  022%=      5-min Rain = 0
KASU 130125Z 07011KT 07/M13 A3021 RMK A01 T00701131  RH  023%=      5-min Rain = 0
KASU 130130Z 07011KT 07/M13 A3022 RMK A01 T00681130  RH  023%=      5-min Rain = 0
KASU 130135Z 07011KT 07/M13 A3022 RMK A01 T00681131  RH  023%=      5-min Rain = 0
KASU 130140Z 07011KT 07/M13 A3022 RMK A01 T00681131  RH  023%=      5-min Rain = 0
KASU 130145Z 07011KT 07/M13 A3022 RMK A01 T00681132  RH  023%=      5-min Rain = 0
KASU 130150Z 07011KT 07/M13 A3023 RMK A01 T00671132  RH  023%=      5-min Rain = 0
KASU 130155Z 07011KT 07/M13 A3023 RMK A01 T00661132  RH  023%=      5-min Rain = 0
KASU 130200Z 07011KT 07/M13 A3023 RMK A01 T00661133  RH  023%=      5-min Rain = 0
KASU 130205Z 07011KT 07/M13 A3023 RMK A01 T00651132  RH  023%=      5-min Rain = 0
KASU 130210Z 07012KT 07/M13 A3024 RMK A01 T00651133  RH  023%=      5-min Rain = 0
KASU 130215Z 07012KT 06/M13 A3024 RMK A01 T00641133  RH  023%=      5-min Rain = 0
KASU 130220Z 08013KT 06/M13 A3024 RMK A01 T00631133  RH  023%=      5-min Rain = 0
KASU 130225Z 08012KT 06/M13 A3024 RMK A01 T00621132  RH  024%=      5-min Rain = 0
KASU 130230Z 08012KT 06/M13 A3025 RMK A01 T00601132  RH  024%=      5-min Rain = 0
KASU 130235Z 08013KT 06/M13 A3025 RMK A01 T00591132  RH  024%=      5-min Rain = 0
KASU 130240Z 08012KT 06/M13 A3025 RMK A01 T00581132  RH  024%=      5-min Rain = 0
KASU 130245Z 08013KT 06/M13 A3025 RMK A01 T00581132  RH  024%=      5-min Rain = 0
KASU 130250Z 07012KT 06/M13 A3026 RMK A01 T00551131  RH  025%=      5-min Rain = 0
KASU 130255Z 07012KT 05/M13 A3026 RMK A01 T00531131  RH  025%=      5-min Rain = 0
KASU 130300Z 08012KT 05/M13 A3027 RMK A01 T00521131  RH  026%=      5-min Rain = 0
KASU 130305Z 08012KT 05/M13 A3027 RMK A01 T00521131  RH  026%=      5-min Rain = 0
KASU 130310Z 07011KT 05/M13 A3028 RMK A01 T00511130  RH  026%=      5-min Rain = 0
KASU 130315Z 07012KT 05/M13 A3028 RMK A01 T00501130  RH  026%=      5-min Rain = 0
KASU 130320Z 07011KT 05/M13 A3028 RMK A01 T00471129  RH  027%=      5-min Rain = 0
KASU 130325Z 08012KT 05/M13 A3029 RMK A01 T00491129  RH  027%=      5-min Rain = 0
KASU 130330Z 07012KT 05/M13 A3029 RMK A01 T00491129  RH  027%=      5-min Rain = 0
KASU 130335Z 07013KT 05/M13 A303 RMK A01 T00491129  RH  027%=      5-min Rain = 0
KASU 130340Z 07014KT 05/M13 A303 RMK A01 T00491129  RH  027%=      5-min Rain = 0
KASU 130345Z 08015KT 05/M13 A303 RMK A01 T00481128  RH  027%=      5-min Rain = 0
KASU 130350Z 08014KT 05/M13 A303 RMK A01 T00471129  RH  027%=      5-min Rain = 0
KASU 130355Z 08014KT 05/M13 A303 RMK A01 T00451129  RH  028%=      5-min Rain = 0
KASU 130400Z 08013KT 04/M13 A3031 RMK A01 T00431128  RH  028%=      5-min Rain = 0
KASU 130405Z 08012KT 04/M13 A3031 RMK A01 T00391128  RH  029%=      5-min Rain = 0
KASU 130410Z 08011KT 04/M13 A3031 RMK A01 T00371127  RH  029%=      5-min Rain = 0
KASU 130415Z 08011KT 04/M13 A3031 RMK A01 T00351127  RH  030%=      5-min Rain = 0
KASU 130420Z 08010KT 03/M13 A3032 RMK A01 T00331126  RH  030%=      5-min Rain = 0
KASU 130425Z 08010KT 03/M13 A3032 RMK A01 T00311126  RH  031%=      5-min Rain = 0
KASU 130430Z 08010KT 03/M13 A3032 RMK A01 T00301126  RH  031%=      5-min Rain = 0
KASU 130435Z 08009KT 03/M13 A3033 RMK A01 T00291125  RH  032%=      5-min Rain = 0
KASU 130440Z 08009KT 03/M13 A3033 RMK A01 T00271125  RH  032%=      5-min Rain = 0
KASU 130445Z 08009KT 03/M13 A3033 RMK A01 T00261125  RH  032%=      5-min Rain = 0
KASU 130450Z 08009KT 03/M13 A3034 RMK A01 T00251125  RH  033%=      5-min Rain = 0
KASU 130455Z 07009KT 02/M13 A3034 RMK A01 T00241125  RH  033%=      5-min Rain = 0
KASU 130500Z 08009KT 03/M13 A3034 RMK A01 T00251125  RH  033%=      5-min Rain = 0
KASU 130505Z 08010KT 02/M13 A3035 RMK A01 T00241126  RH  033%=      5-min Rain = 0
KASU 130510Z 07009KT 03/M13 A3035 RMK A01 T00251126  RH  032%=      5-min Rain = 0
KASU 130515Z 08009KT 02/M13 A3035 RMK A01 T00231126  RH  033%=      5-min Rain = 0
KASU 130520Z 08008KT 02/M13 A3036 RMK A01 T00221127  RH  033%=      5-min Rain = 0
KASU 130525Z 08008KT 02/M13 A3036 RMK A01 T00221127  RH  033%=      5-min Rain = 0
KASU 130530Z 08008KT 02/M13 A3036 RMK A01 T00221127  RH  033%=      5-min Rain = 0
KASU 130535Z 08007KT 02/M13 A3036 RMK A01 T00191127  RH  033%=      5-min Rain = 0
KASU 130540Z 08007KT 02/M13 A3037 RMK A01 T00181127  RH  034%=      5-min Rain = 0
KASU 130545Z 08007KT 02/M13 A3037 RMK A01 T00171127  RH  034%=      5-min Rain = 0
KASU 130550Z 08007KT 02/M13 A3037 RMK A01 T00151127  RH  034%=      5-min Rain = 0
KASU 130555Z 08008KT 02/M13 A3037 RMK A01 T00151126  RH  035%=      5-min Rain = 0

Page generated in 0.0095 seconds.